CheckWX is a tool to help pilots better visualize weather data.  It is not intended as a substitute for an official pre-flight weather briefing.

05:46:00 UTC

KCLE METAR
Cleveland-Hopkins International Airport
Cleveland, Ohio, USA
Current

55 mins ago

KCLE 260451Z 03012KT 3SM -RA BR OVC003 02/01 A2990 RMK AO2 SLP132 P0001 T00170006 400560017
Observed
Feb-26 @ 04:51 UTC
Wind
  • 030° at 12 KTS
Visibility
3 SM
Flight Rules
LIFR
Conditions
Light Rain, Mist
Cloud Levels
  • Overcast at 300' AGL
Temperature
C / 36°F
Dewpoint
C / 34°F
Humidity
93%
Altimeter
29.9" Hg
Pressure
1012.52 hPa
Current Rain
0.01"
Previous

2 hours ago

KCLE 260351Z 03014KT 5SM -RA BR OVC003 02/01 A2991 RMK AO2 SLP133 P0001 T00220006
Observed
Feb-26 @ 03:51 UTC
Wind
  • 030° at 14 KTS
Visibility
5 SM
Flight Rules
LIFR
Conditions
Light Rain, Mist
Cloud Levels
  • Overcast at 300' AGL
Temperature
C / 36°F
Dewpoint
C / 34°F
Humidity
93%
Altimeter
29.91" Hg
Pressure
1012.92 hPa
Current Rain
0.01"
Previous

3 hours ago

KCLE 260251Z 04016KT 6SM -RA BR OVC003 02/01 A2991 RMK AO2 SLP134 P0003 60008 T00220011 50003
Observed
Feb-26 @ 02:51 UTC
Wind
  • 040° at 16 KTS
Visibility
6 SM
Flight Rules
LIFR
Conditions
Light Rain, Mist
Cloud Levels
  • Overcast at 300' AGL
Temperature
C / 36°F
Dewpoint
C / 34°F
Humidity
93%
Altimeter
29.91" Hg
Pressure
1012.92 hPa
Current Rain
0.03"